Time;durP1;ratioP1;P1;durP2;ratioP2;P2;SDS_P1;SDS_P2;PMS_P1;PMS_P2;Temp;Humidity;BMP_temperature;BMP_pressure;BME280_temperature;BME280_humidity;BME280_pressure;Samples;Min_cycle;Max_cycle;Signal;HPM_P1;HPM_P2
2022/10/02 00:02:15;;;;;;;22.52;8.18;;;;;;;;;;5118815;27;20915;-74
2022/10/02 00:04:44;;;;;;;22.17;6.83;;;11.00;99.90;;;;;;5122449;27;20412;-74
2022/10/02 00:07:11;;;;;;;18.40;6.80;;;11.00;99.90;;;;;;5135448;27;20417;-75
2022/10/02 00:09:53;;;;;;;17.50;7.18;;;11.10;99.90;;;;;;5131363;27;20418;-74
2022/10/02 00:12:21;;;;;;;23.25;6.93;;;;;;;;;;5131867;27;20421;-75
2022/10/02 00:14:51;;;;;;;21.92;6.47;;;11.00;99.90;;;;;;5130389;27;20414;-74
2022/10/02 00:17:28;;;;;;;16.48;5.50;;;;;;;;;;5107800;27;20430;-74
2022/10/02 00:19:57;;;;;;;21.35;6.90;;;;;;;;;;5116352;27;20994;-74
2022/10/02 00:22:37;;;;;;;23.40;6.20;;;;;;;;;;5116274;27;20511;-74
2022/10/02 00:25:08;;;;;;;22.63;6.82;;;;;;;;;;5129971;27;20413;-74
2022/10/02 00:27:49;;;;;;;19.58;5.95;;;;;;;;;;5123949;27;20429;-73
2022/10/02 00:30:16;;;;;;;20.45;5.95;;;10.90;99.90;;;;;;5136001;27;20935;-74
2022/10/02 00:32:53;;;;;;;18.47;5.90;;;;;;;;;;5120182;27;20722;-74
2022/10/02 00:35:45;;;;;;;22.05;5.85;;;11.60;99.90;;;;;;5124568;27;20431;-74
2022/10/02 00:38:51;;;;;;;25.15;6.05;;;11.30;99.90;;;;;;5132374;27;20519;-75
2022/10/02 00:41:23;;;;;;;26.02;6.70;;;;;;;;;;5087354;27;20494;-74
2022/10/02 00:43:49;;;;;;;23.50;5.75;;;;;;;;;;5124135;27;20415;-74
2022/10/02 00:46:15;;;;;;;23.95;6.28;;;;;;;;;;5133538;27;20425;-74
2022/10/02 00:49:00;;;;;;;23.58;6.32;;;;;;;;;;5116015;27;20414;-74
2022/10/02 00:51:39;;;;;;;17.63;5.33;;;;;;;;;;5119634;27;20778;-74
2022/10/02 00:54:28;;;;;;;20.00;5.80;;;;;;;;;;5101900;27;20494;-74
2022/10/02 00:57:22;;;;;;;18.38;5.38;;;11.30;99.90;;;;;;5106986;27;20416;-75
2022/10/02 01:00:00;;;;;;;19.40;4.47;;;;;;;;;;5116331;27;20424;-74
2022/10/02 01:02:26;;;;;;;15.77;4.72;;;;;;;;;;5118766;27;20397;-75
2022/10/02 01:04:53;;;;;;;23.57;5.37;;;;;;;;;;5133164;27;20465;-74
2022/10/02 01:07:19;;;;;;;23.13;5.10;;;;;;;;;;5110405;27;20410;-74
2022/10/02 01:09:45;;;;;;;16.25;5.00;;;;;;;;;;5119121;27;20419;-74
2022/10/02 01:12:12;;;;;;;19.30;4.75;;;;;;;;;;5124228;27;21009;-75
2022/10/02 01:14:39;;;;;;;16.75;4.53;;;;;;;;;;5105656;27;20460;-74
2022/10/02 01:17:06;;;;;;;18.13;5.07;;;;;;;;;;5134853;27;20420;-75
2022/10/02 01:19:39;;;;;;;15.88;4.50;;;;;;;;;;5120417;27;20413;-75
2022/10/02 01:22:20;;;;;;;20.13;5.30;;;;;;;;;;5115935;27;20418;-75
2022/10/02 01:24:46;;;;;;;18.40;4.43;;;;;;;;;;5126554;27;20401;-75
2022/10/02 01:27:12;;;;;;;20.73;4.45;;;;;;;;;;5133457;27;20477;-75
2022/10/02 01:29:38;;;;;;;16.92;4.38;;;;;;;;;;5096251;27;20422;-75
2022/10/02 01:32:04;;;;;;;21.55;4.70;;;;;;;;;;5131159;27;20971;-75
2022/10/02 01:34:31;;;;;;;21.02;4.40;;;;;;;;;;5124217;27;21252;-75
2022/10/02 01:36:57;;;;;;;16.30;4.28;;;;;;;;;;5121306;27;20417;-75
2022/10/02 01:39:25;;;;;;;17.27;4.05;;;;;;;;;;5132663;27;20481;-75
2022/10/02 01:41:52;;;;;;;19.10;4.18;;;;;;;;;;5135499;27;20763;-75
2022/10/02 01:44:18;;;;;;;18.33;4.00;;;;;;;;;;5135402;27;20397;-75
2022/10/02 01:47:04;;;;;;;17.08;4.60;;;11.50;99.90;;;;;;5134178;27;20440;-75
2022/10/02 01:49:40;;;;;;;18.25;4.03;;;;;;;;;;5123795;27;20419;-75
2022/10/02 01:52:40;;;;;;;18.60;4.30;;;11.70;99.90;;;;;;5132402;27;20517;-75
2022/10/02 01:55:09;;;;;;;18.15;4.57;;;;;;;;;;5124871;27;20413;-75
2022/10/02 01:57:35;;;;;;;16.00;4.18;;;;;;;;;;5128711;27;20470;-75
2022/10/02 02:00:02;;;;;;;16.60;4.15;;;;;;;;;;5134778;27;20914;-75
2022/10/02 02:02:46;;;;;;;15.13;3.90;;;;;;;;;;5135019;27;20482;-75
2022/10/02 02:05:15;;;;;;;14.23;3.50;;;;;;;;;;5098986;27;20419;-75
2022/10/02 02:08:04;;;;;;;14.37;3.93;;;11.50;99.90;;;;;;5123926;27;21018;-75
2022/10/02 02:10:39;;;;;;;15.07;3.25;;;;;;;;;;5075996;27;20414;-75
2022/10/02 02:13:14;;;;;;;15.18;4.03;;;11.50;99.90;;;;;;5097188;27;20407;-75
2022/10/02 02:16:04;;;;;;;13.10;3.15;;;11.40;99.90;;;;;;5113288;27;20423;-75
2022/10/02 02:18:38;;;;;;;15.32;3.28;;;;;;;;;;5130569;27;20859;-75
2022/10/02 02:21:13;;;;;;;20.60;4.10;;;11.40;99.90;;;;;;5107103;28;20777;-75
2022/10/02 02:23:40;;;;;;;16.52;4.07;;;;;;;;;;5096804;27;20426;-75
2022/10/02 02:26:11;;;;;;;14.45;3.83;;;;;;;;;;5130295;27;20409;-75
2022/10/02 02:28:42;;;;;;;17.17;3.80;;;11.70;99.90;;;;;;5124583;27;20422;-75
2022/10/02 02:31:11;;;;;;;14.35;3.88;;;11.70;99.90;;;;;;5113663;28;20438;-75
2022/10/02 02:33:46;;;;;;;13.88;3.45;;;;;;;;;;5109126;27;20424;-75
2022/10/02 02:36:14;;;;;;;12.40;3.80;;;;;;;;;;5114475;28;20441;-76
2022/10/02 02:38:46;;;;;;;13.32;3.60;;;11.50;99.90;;;;;;5132110;27;20499;-75
2022/10/02 02:41:15;;;;;;;17.02;3.80;;;;;;;;;;5109858;28;20414;-75
2022/10/02 02:44:03;;;;;;;16.08;4.10;;;11.80;99.90;;;;;;5113707;27;20394;-75
2022/10/02 02:47:02;;;;;;;18.23;4.43;;;;;;;;;;5095927;27;20403;-75
2022/10/02 02:49:26;;;;;;;15.00;3.78;;;;;;;;;;5113432;28;20432;-75
2022/10/02 02:51:53;;;;;;;15.85;3.83;;;;;;;;;;5130531;27;20420;-75
2022/10/02 02:54:24;;;;;;;15.57;4.05;;;11.60;99.90;;;;;;5130148;27;20507;-76
2022/10/02 02:56:52;;;;;;;14.45;3.88;;;11.40;99.90;;;;;;5116435;27;20401;-75
2022/10/02 02:59:19;;;;;;;18.40;4.07;;;;;;;;;;5096765;28;20430;-75
2022/10/02 03:01:46;;;;;;;17.50;4.65;;;;;;;;;;5126748;27;20409;-75
2022/10/02 03:04:13;;;;;;;15.90;4.15;;;;;;;;;;5128044;27;20428;-75
2022/10/02 03:06:44;;;;;;;13.50;3.80;;;11.70;99.90;;;;;;5108507;27;20421;-75
2022/10/02 03:09:16;;;;;;;13.75;3.70;;;;;;;;;;5131207;28;20390;-75
2022/10/02 03:12:01;;;;;;;17.60;3.85;;;11.60;99.90;;;;;;5130566;28;20405;-75
2022/10/02 03:14:55;;;;;;;11.30;3.37;;;11.30;99.90;;;;;;5116017;28;20406;-75
2022/10/02 03:17:21;;;;;;;15.03;3.87;;;;;;;;;;5129385;27;20455;-75
2022/10/02 03:20:08;;;;;;;18.42;3.80;;;11.70;99.90;;;;;;5106531;27;20421;-75
2022/10/02 03:22:50;;;;;;;16.80;3.85;;;;;;;;;;5096517;28;20422;-75
2022/10/02 03:25:22;;;;;;;17.83;3.58;;;11.60;99.90;;;;;;5127990;27;20927;-75
2022/10/02 03:28:09;;;;;;;14.18;4.10;;;11.40;99.90;;;;;;5132907;27;20416;-75
2022/10/02 03:30:36;;;;;;;17.65;3.78;;;;;;;;;;5114896;27;20496;-76
2022/10/02 03:33:03;;;;;;;15.85;4.32;;;;;;;;;;5127564;27;20546;-75
2022/10/02 03:35:30;;;;;;;15.50;3.90;;;;;;;;;;5110564;27;20416;-75
2022/10/02 03:38:01;;;;;;;13.10;3.50;;;11.80;99.90;;;;;;5119490;27;20417;-75
2022/10/02 03:40:27;;;;;;;19.85;4.00;;;;;;;;;;5134549;27;20428;-75
2022/10/02 03:42:57;;;;;;;16.58;4.22;;;;;;;;;;5100013;27;20402;-75
2022/10/02 03:45:27;;;;;;;21.52;4.28;;;11.70;99.90;;;;;;5109771;27;20425;-75
2022/10/02 03:47:54;;;;;;;20.33;4.07;;;;;;;;;;5103059;27;20422;-75
2022/10/02 03:50:20;;;;;;;18.25;4.47;;;;;;;;;;5118738;27;20738;-75
2022/10/02 03:52:47;;;;;;;18.35;4.10;;;;;;;;;;5137445;27;20397;-75
2022/10/02 03:55:54;;;;;;;22.42;4.00;;;11.60;99.90;;;;;;5127167;27;20414;-75
2022/10/02 03:58:20;;;;;;;14.93;3.85;;;;;;;;;;5046407;28;20423;-75
2022/10/02 04:01:11;;;;;;;16.75;3.80;;;11.70;99.90;;;;;;5107143;27;20809;-75
2022/10/02 04:03:37;;;;;;;18.90;3.90;;;;;;;;;;5119559;27;20419;-75
2022/10/02 04:06:22;;;;;;;15.07;3.58;;;;;;;;;;5120523;27;20423;-75
2022/10/02 04:08:53;;;;;;;18.48;4.50;;;;;;;;;;5113925;27;20428;-76
2022/10/02 04:12:00;;;;;;;14.90;3.97;;;11.60;99.90;;;;;;5120455;27;20397;-75
2022/10/02 04:14:43;;;;;;;16.33;4.05;;;11.30;99.90;;;;;;5098992;27;20417;-75
2022/10/02 04:17:16;;;;;;;18.80;4.55;;;;;;;;;;5130846;27;20922;-75
2022/10/02 04:19:45;;;;;;;18.25;4.00;;;;;;;;;;5114425;27;20478;-75
2022/10/02 04:22:25;;;;;;;17.85;4.00;;;10.80;99.90;;;;;;5136437;27;20941;-75
2022/10/02 04:24:58;;;;;;;18.37;4.00;;;11.30;99.90;;;;;;5131504;27;20427;-75
2022/10/02 04:27:49;;;;;;;19.55;4.47;;;11.30;99.90;;;;;;5135600;27;20417;-75
2022/10/02 04:30:16;;;;;;;18.08;4.30;;;;;;;;;;5122528;27;20413;-75
2022/10/02 04:32:42;;;;;;;16.48;4.35;;;;;;;;;;5135675;27;20417;-75
2022/10/02 04:35:40;;;;;;;17.83;4.10;;;11.10;99.90;;;;;;5109753;27;20815;-75
2022/10/02 04:38:36;;;;;;;18.02;4.07;;;11.00;99.90;;;;;;5071998;27;20493;-75
2022/10/02 04:41:35;;;;;;;18.70;4.63;;;11.10;99.90;;;;;;5130731;27;20497;-75
2022/10/02 04:44:10;;;;;;;16.58;3.72;;;;;;;;;;5100091;27;20424;-75
2022/10/02 04:46:56;;;;;;;18.95;4.10;;;;;;;;;;5142664;27;20429;-76
2022/10/02 04:49:31;;;;;;;18.95;4.38;;;;;;;;;;5131667;27;20739;-74
2022/10/02 04:52:07;;;;;;;15.38;3.70;;;;;;;;;;5114663;27;20425;-75
2022/10/02 04:54:43;;;;;;;14.60;3.50;;;;;;;;;;5134925;27;20426;-75
2022/10/02 04:57:21;;;;;;;18.13;3.60;;;;;;;;;;5127056;27;20458;-75
2022/10/02 04:59:50;;;;;;;17.65;3.55;;;;;;;;;;5146641;27;20394;-75
2022/10/02 05:02:35;;;;;;;17.23;4.07;;;;;;;;;;5150688;27;20405;-75
2022/10/02 05:05:01;;;;;;;23.70;3.85;;;;;;;;;;5131084;27;20454;-75
2022/10/02 05:07:53;;;;;;;18.52;3.97;;;10.90;99.90;;;;;;5131935;27;20442;-74
2022/10/02 05:10:47;;;;;;;17.58;4.45;;;10.60;99.90;;;;;;5129749;27;20418;-76
2022/10/02 05:13:16;;;;;;;20.95;4.40;;;;;;;;;;5129072;27;20427;-74
2022/10/02 05:15:57;;;;;;;18.25;4.07;;;11.00;99.90;;;;;;5119615;27;20449;-76
2022/10/02 05:18:32;;;;;;;18.45;4.00;;;;;;;;;;5130980;27;20428;-75
2022/10/02 05:21:08;;;;;;;16.27;4.05;;;;;;;;;;5126132;27;20478;-75
2022/10/02 05:23:37;;;;;;;18.77;4.13;;;;;;;;;;5148009;27;20839;-75
2022/10/02 05:26:20;;;;;;;20.70;4.47;;;10.70;99.90;;;;;;5131330;27;20455;-75
2022/10/02 05:28:52;;;;;;;18.92;4.20;;;;;;;;;;5105243;27;20944;-76
2022/10/02 05:31:18;;;;;;;19.50;4.47;;;;;;;;;;5138968;27;20413;-77
2022/10/02 05:33:53;;;;;;;16.75;4.55;;;;;;;;;;5135613;27;20765;-76
2022/10/02 05:36:25;;;;;;;18.30;4.47;;;;;;;;;;5122419;27;20527;-77
2022/10/02 05:38:51;;;;;;;22.58;4.53;;;;;;;;;;5123372;27;20943;-75
2022/10/02 05:41:20;;;;;;;15.93;3.88;;;;;;;;;;5119605;27;20412;-76
2022/10/02 05:43:47;;;;;;;16.63;3.70;;;;;;;;;;5114745;27;20413;-75
2022/10/02 05:46:15;;;;;;;16.77;4.22;;;;;;;;;;5133377;27;20421;-76
2022/10/02 05:48:50;;;;;;;22.67;4.05;;;10.50;99.90;;;;;;5132300;27;20417;-74
2022/10/02 05:51:20;;;;;;;20.02;3.75;;;10.60;99.90;;;;;;5105719;27;20426;-75
2022/10/02 05:53:52;;;;;;;15.00;3.80;;;;;;;;;;5106626;27;20505;-75
2022/10/02 05:56:22;;;;;;;21.70;4.40;;;;;;;;;;5126869;27;20892;-75
2022/10/02 05:59:08;;;;;;;18.63;3.53;;;;;;;;;;5107434;27;20435;-74
2022/10/02 06:01:42;;;;;;;20.23;3.83;;;11.00;99.90;;;;;;5107122;27;20410;-75
2022/10/02 06:04:18;;;;;;;20.00;3.88;;;;;;;;;;5125291;27;20733;-75
2022/10/02 06:06:47;;;;;;;23.92;4.28;;;;;;;;;;5127263;27;20413;-75
2022/10/02 06:09:13;;;;;;;18.75;3.60;;;;;;;;;;5127454;27;20426;-76
2022/10/02 06:11:47;;;;;;;18.13;3.60;;;;;;;;;;5134241;27;20452;-75
2022/10/02 06:14:20;;;;;;;15.98;3.50;;;;;;;;;;5108900;27;20420;-75
2022/10/02 06:16:49;;;;;;;25.48;3.90;;;;;;;;;;5105918;27;20946;-76
2022/10/02 06:19:23;;;;;;;17.60;3.60;;;;;;;;;;5143693;27;21603;-76
2022/10/02 06:21:50;;;;;;;16.60;4.88;;;;;;;;;;5113522;27;20555;-75
2022/10/02 06:24:24;;;;;;;17.48;3.83;;;;;;;;;;5115663;27;20420;-75
2022/10/02 06:27:12;;;;;;;20.05;3.83;;;11.10;99.90;;;;;;5104207;27;20413;-75
2022/10/02 06:30:04;;;;;;;17.57;3.23;;;;;;;;;;5101427;28;20449;-76
2022/10/02 06:32:39;;;;;;;21.58;4.03;;;;;;;;;;5128542;27;20409;-75
2022/10/02 06:35:12;;;;;;;19.17;3.60;;;11.50;99.90;;;;;;5134434;27;20503;-76
2022/10/02 06:37:57;;;;;;;16.95;3.78;;;;;;;;;;5130103;27;20433;-75
2022/10/02 06:40:42;;;;;;;16.88;3.88;;;;;;;;;;5129651;27;20421;-75
2022/10/02 06:43:17;;;;;;;14.57;3.83;;;;;;;;;;5132867;27;20428;-76
2022/10/02 06:46:12;;;;;;;15.85;4.30;;;;;;;;;;5121868;27;20423;-76
2022/10/02 06:48:57;;;;;;;15.43;3.55;;;;;;;;;;5092490;27;20420;-76
2022/10/02 06:51:49;;;;;;;15.98;3.45;;;;;;;;;;5134488;27;20417;-76
2022/10/02 06:54:34;;;;;;;15.52;3.35;;;;;;;;;;5099629;27;20416;-76
2022/10/02 06:57:03;;;;;;;13.43;3.05;;;;;;;;;;5133268;27;20412;-76
2022/10/02 06:59:29;;;;;;;19.27;3.80;;;;;;;;;;5108332;28;20513;-76
2022/10/02 07:02:16;;;;;;;15.68;3.55;;;;;;;;;;5115310;27;20407;-77
2022/10/02 07:04:49;;;;;;;13.88;3.60;;;;;;;;;;5132007;27;20413;-77
2022/10/02 07:07:24;;;;;;;18.60;4.13;;;;;;;;;;5114560;27;20416;-76
2022/10/02 07:10:16;;;;;;;16.48;3.75;;;12.10;99.90;;;;;;5131526;27;20416;-77
2022/10/02 07:12:42;;;;;;;16.27;3.83;;;;;;;;;;5129674;27;20422;-77
2022/10/02 07:15:27;;;;;;;17.88;3.63;;;;;;;;;;5100302;27;20391;-77
2022/10/02 07:17:56;;;;;;;19.63;3.92;;;;;;;;;;5110656;27;20432;-77
2022/10/02 07:20:33;;;;;;;13.63;3.35;;;;;;;;;;5121187;27;20460;-77
2022/10/02 07:23:15;;;;;;;15.05;3.33;;;;;;;;;;5127041;27;20435;-76
2022/10/02 07:26:06;;;;;;;17.38;3.50;;;12.10;99.90;;;;;;5121033;27;20389;-77
2022/10/02 07:28:51;;;;;;;14.88;3.47;;;;;;;;;;5112810;27;20429;-77
2022/10/02 07:31:20;;;;;;;13.13;3.15;;;;;;;;;;5137433;27;20408;-77
2022/10/02 07:34:05;;;;;;;14.68;3.45;;;12.20;99.90;;;;;;5120360;27;20546;-77
2022/10/02 07:36:37;;;;;;;10.48;2.80;;;;;;;;;;5126839;27;20429;-78
2022/10/02 07:39:15;;;;;;;13.50;2.88;;;;;;;;;;5133385;27;20478;-77
2022/10/02 07:41:51;;;;;;;10.00;2.88;;;13.10;99.90;;;;;;5135902;27;20435;-78
2022/10/02 07:44:42;;;;;;;11.88;2.70;;;13.50;99.90;;;;;;5121366;27;20449;-78
2022/10/02 07:47:25;;;;;;;10.75;2.83;;;;;;;;;;5101352;27;20417;-77
2022/10/02 07:49:57;;;;;;;14.57;2.92;;;;;;;;;;5112464;27;20452;-77
2022/10/02 07:52:50;;;;;;;9.52;3.08;;;;;;;;;;5134733;27;20417;-77
2022/10/02 07:55:23;;;;;;;15.57;3.20;;;;;;;;;;5134497;27;20435;-77
2022/10/02 07:58:07;;;;;;;10.93;2.93;;;;;;;;;;5125673;27;20502;-76
2022/10/02 08:00:49;;;;;;;12.90;2.90;;;13.70;99.90;;;;;;5134557;27;20927;-75
2022/10/02 08:03:20;;;;;;;13.10;3.47;;;;;;;;;;5134267;27;20415;-75
2022/10/02 08:05:52;;;;;;;16.52;3.72;;;;;;;;;;5135822;27;20416;-76
2022/10/02 08:08:25;;;;;;;15.43;3.40;;;;;;;;;;5123650;27;20417;-75
2022/10/02 08:10:54;;;;;;;13.30;3.15;;;;;;;;;;5126383;27;20422;-76
2022/10/02 08:13:28;;;;;;;16.55;3.80;;;;;;;;;;5124553;27;20417;-76
2022/10/02 08:15:55;;;;;;;16.75;3.78;;;;;;;;;;5119801;27;20416;-76
2022/10/02 08:18:36;;;;;;;12.50;3.40;;;14.60;99.90;;;;;;5126987;27;20418;-76
2022/10/02 08:21:13;;;;;;;14.10;3.40;;;14.90;99.90;;;;;;5129611;27;20471;-76
2022/10/02 08:23:45;;;;;;;17.10;3.13;;;;;;;;;;5132675;27;20465;-75
2022/10/02 08:26:24;;;;;;;15.17;3.40;;;14.70;99.90;;;;;;5135531;27;20562;-75
2022/10/02 08:28:50;;;;;;;16.10;3.60;;;;;;;;;;5126304;27;20417;-74
2022/10/02 08:31:17;;;;;;;10.48;2.83;;;;;;;;;;5131701;27;20424;-76
2022/10/02 08:33:43;;;;;;;13.20;2.95;;;;;;;;;;5129486;27;22176;-74
2022/10/02 08:36:28;;;;;;;14.80;3.25;;;;;;;;;;5124545;27;20433;-75
2022/10/02 08:39:02;;;;;;;17.35;3.53;;;;;;;;;;5110245;27;20417;-75
2022/10/02 08:41:46;;;;;;;18.05;3.60;;;;;;;;;;5122636;27;20489;-75
2022/10/02 08:44:27;;;;;;;15.25;3.20;;;;;;;;;;5098434;27;20446;-75
2022/10/02 08:47:32;;;;;;;12.73;3.00;;;14.50;99.90;;;;;;5108496;27;20426;-75
2022/10/02 08:49:58;;;;;;;16.00;3.37;;;;;;;;;;5079327;27;20559;-75
2022/10/02 08:52:30;;;;;;;16.13;3.00;;;;;;;;;;5128186;27;20416;-75
2022/10/02 08:54:56;;;;;;;15.27;3.13;;;;;;;;;;5115395;27;20496;-75
2022/10/02 08:57:22;;;;;;;13.32;3.22;;;;;;;;;;5112217;27;20421;-76
2022/10/02 09:00:11;;;;;;;16.42;3.13;;;;;;;;;;5100856;27;20419;-75
2022/10/02 09:02:40;;;;;;;14.68;3.30;;;;;;;;;;5127955;27;20430;-75
2022/10/02 09:05:43;;;;;;;14.70;2.80;;;14.90;99.90;;;;;;5111241;27;20414;-74
2022/10/02 09:08:27;;;;;;;14.50;3.13;;;;;;;;;;5117529;27;21087;-78
2022/10/02 09:11:24;;;;;;;15.23;3.42;;;15.20;99.90;;;;;;5125247;27;20454;-75
2022/10/02 09:14:09;;;;;;;13.63;3.22;;;;;;;;;;5113964;27;20887;-78
2022/10/02 09:16:41;;;;;;;14.45;3.65;;;;;;;;;;5096332;27;20552;-75
2022/10/02 09:19:07;;;;;;;13.43;3.28;;;;;;;;;;5116650;27;20435;-75
2022/10/02 09:21:36;;;;;;;14.00;3.40;;;;;;;;;;5100224;27;20900;-75
2022/10/02 09:24:28;;;;;;;14.33;3.37;;;15.80;99.90;;;;;;5140630;27;20401;-76
2022/10/02 09:27:13;;;;;;;14.02;2.88;;;;;;;;;;5120172;27;20406;-75
2022/10/02 09:30:01;;;;;;;13.30;2.47;;;15.50;99.90;;;;;;5100868;27;20452;-76
2022/10/02 09:32:27;;;;;;;12.77;2.65;;;;;;;;;;5118039;27;20962;-75
2022/10/02 09:35:05;;;;;;;13.52;2.83;;;;;;;;;;5128879;27;20444;-76
2022/10/02 09:37:38;;;;;;;13.35;2.45;;;;;;;;;;5116912;27;20968;-76
2022/10/02 09:40:24;;;;;;;12.30;2.60;;;;;;;;;;5116338;27;20413;-76
2022/10/02 09:42:56;;;;;;;11.82;3.05;;;;;;;;;;5125685;27;20413;-76
2022/10/02 09:45:52;;;;;;;14.65;3.00;;;14.40;99.90;;;;;;5134864;27;20891;-77
2022/10/02 09:48:26;;;;;;;11.27;3.30;;;;;;;;;;5134575;27;20408;-78
2022/10/02 09:51:25;;;;;;;15.32;3.35;;;14.30;99.90;;;;;;5117709;27;20480;-77
2022/10/02 09:53:51;;;;;;;15.27;3.40;;;;;;;;;;5089012;27;20475;-75
2022/10/02 09:56:24;;;;;;;14.23;3.53;;;;;;;;;;5135395;27;20777;-75
2022/10/02 09:59:18;;;;;;;17.38;3.72;;;14.50;99.90;;;;;;5114188;27;20446;-75
2022/10/02 10:01:58;;;;;;;11.32;2.92;;;;;;;;;;5098776;27;20482;-82
2022/10/02 10:04:45;;;;;;;14.60;3.20;;;15.50;99.90;;;;;;5129846;27;20428;-76
2022/10/02 10:07:42;;;;;;;17.00;3.90;;;15.80;99.90;;;;;;5106661;27;20437;-77
2022/10/02 10:10:18;;;;;;;17.58;3.78;;;;;;;;;;5133103;27;20411;-77
2022/10/02 10:12:48;;;;;;;12.07;3.13;;;;;;;;;;5112051;27;20394;-77
2022/10/02 10:15:33;;;;;;;14.88;3.40;;;;;;;;;;5106606;27;20410;-77
2022/10/02 10:18:25;;;;;;;16.50;4.05;;;;;;;;;;5122754;27;20916;-76
2022/10/02 10:21:03;;;;;;;13.45;3.33;;;;;;;;;;5120721;27;20409;-76
2022/10/02 10:23:30;;;;;;;13.93;3.20;;;;;;;;;;5113502;27;20483;-76
2022/10/02 10:25:56;;;;;;;16.30;2.90;;;;;;;;;;5131057;27;20407;-76
2022/10/02 10:28:37;;;;;;;18.38;3.40;;;;;;;;;;5123829;27;20400;-77
2022/10/02 10:31:08;;;;;;;15.75;3.25;;;;;;;;;;5122220;27;20410;-76
2022/10/02 10:34:12;;;;;;;12.50;3.03;;;15.80;99.90;;;;;;5114874;27;20408;-75
2022/10/02 10:39:53;;;;;;;14.60;3.83;;;;;;;;;;5128236;28;20501;-75
2022/10/02 10:42:34;;;;;;;15.13;2.90;;;15.40;99.90;;;;;;5130599;27;20625;-76
2022/10/02 10:45:07;;;;;;;16.98;3.72;;;;;;;;;;5118561;27;20428;-76
2022/10/02 10:47:45;;;;;;;15.68;3.47;;;;;;;;;;5101761;27;20394;-76
2022/10/02 10:50:14;;;;;;;16.92;3.25;;;;;;;;;;5104458;27;20406;-76
2022/10/02 10:53:03;;;;;;;15.38;2.78;;;15.20;99.90;;;;;;5118867;27;20476;-76
2022/10/02 10:55:29;;;;;;;14.20;3.00;;;;;;;;;;5109279;27;20954;-76
2022/10/02 10:57:55;;;;;;;13.93;2.97;;;;;;;;;;5107035;27;20412;-76
2022/10/02 11:00:23;;;;;;;16.55;3.08;;;;;;;;;;5126521;27;20418;-76
2022/10/02 11:02:56;;;;;;;13.75;2.78;;;;;;;;;;5101119;27;20921;-74
2022/10/02 11:05:41;;;;;;;11.27;2.70;;;;;;;;;;5133460;27;20996;-75
2022/10/02 11:08:34;;;;;;;12.83;2.87;;;;;;;;;;5111533;27;20447;-75
2022/10/02 11:11:09;;;;;;;14.60;3.50;;;;;;;;;;5125835;27;20465;-75
2022/10/02 11:13:40;;;;;;;14.93;2.90;;;;;;;;;;5127746;27;20760;-75
2022/10/02 11:16:19;;;;;;;13.48;3.25;;;;;;;;;;5137865;27;20405;-76
2022/10/02 11:19:00;;;;;;;12.15;2.83;;;;;;;;;;5121260;27;20417;-75
2022/10/02 11:21:33;;;;;;;13.95;3.10;;;;;;;;;;5138595;27;20389;-75
2022/10/02 11:24:12;;;;;;;14.07;3.10;;;;;;;;;;5119521;27;20415;-76
2022/10/02 11:26:44;;;;;;;14.10;3.38;;;;;;;;;;5133861;27;20413;-76
2022/10/02 11:29:11;;;;;;;18.40;3.20;;;;;;;;;;5134637;27;20395;-76
2022/10/02 11:32:27;;;;;;;13.40;2.88;;;16.80;99.90;;;;;;5136289;27;20831;-76
2022/10/02 11:34:59;;;;;;;11.82;2.25;;;;;;;;;;5131943;27;20480;-76
2022/10/02 11:37:44;;;;;;;11.07;2.65;;;;;;;;;;5113579;27;20420;-75
2022/10/02 11:40:29;;;;;;;10.48;2.70;;;;;;;;;;5098427;27;20423;-76
2022/10/02 11:43:10;;;;;;;13.15;2.60;;;;;;;;;;5117467;27;20425;-76
2022/10/02 11:45:55;;;;;;;11.83;2.67;;;;;;;;;;5114480;27;20418;-77
2022/10/02 11:48:55;;;;;;;11.50;2.70;;;17.20;99.90;;;;;;5099977;27;20462;-77
2022/10/02 11:51:40;;;;;;;12.95;2.78;;;;;;;;;;5115343;27;20504;-77
2022/10/02 11:54:22;;;;;;;10.13;2.43;;;17.40;99.90;;;;;;5110243;27;20482;-76
2022/10/02 11:56:55;;;;;;;11.73;2.90;;;;;;;;;;5134411;27;20412;-76
2022/10/02 11:59:53;;;;;;;11.15;2.63;;;17.20;99.90;;;;;;5129053;27;20749;-76
2022/10/02 12:02:37;;;;;;;10.98;2.78;;;;;;;;;;5124680;27;20470;-76
2022/10/02 12:05:08;;;;;;;10.85;2.38;;;;;;;;;;5118954;27;20419;-77
2022/10/02 12:07:44;;;;;;;9.32;2.45;;;16.20;99.90;;;;;;5121103;27;20409;-76
2022/10/02 12:10:40;;;;;;;11.70;2.90;;;16.80;99.90;;;;;;5113330;27;20421;-76
2022/10/02 12:13:15;;;;;;;12.70;2.83;;;;;;;;;;5112679;27;20420;-77
2022/10/02 12:15:41;;;;;;;8.50;2.20;;;;;;;;;;5102804;27;20426;-77
2022/10/02 12:18:26;;;;;;;12.20;2.35;;;;;;;;;;5110732;27;20920;-76
2022/10/02 12:27:35;;;;;;;11.02;2.38;;;17.70;99.90;;;;;;5130717;27;20444;-76
2022/10/02 12:30:16;;;;;;;8.73;2.13;;;17.60;99.90;;;;;;5119815;27;20474;-76
2022/10/02 12:32:42;;;;;;;10.32;2.17;;;;;;;;;;5129749;27;20417;-76
2022/10/02 12:35:27;;;;;;;13.38;2.42;;;;;;;;;;5135620;27;20417;-76
2022/10/02 12:38:06;;;;;;;11.18;2.25;;;;;;;;;;5105471;27;20415;-76
2022/10/02 12:41:08;;;;;;;10.25;2.30;;;17.20;99.90;;;;;;5124667;27;20777;-76
2022/10/02 12:43:54;;;;;;;8.70;2.03;;;17.40;99.90;;;;;;5098490;27;20949;-76
2022/10/02 12:46:58;;;;;;;11.03;1.97;;;17.30;99.90;;;;;;5113705;27;20416;-76
2022/10/02 12:50:12;;;;;;;8.13;2.20;;;17.60;99.90;;;;;;5138914;27;21157;-76
2022/10/02 12:53:05;;;;;;;10.85;2.25;;;17.90;99.90;;;;;;5094436;27;20416;-76
2022/10/02 12:55:31;;;;;;;11.77;2.40;;;;;;;;;;5116038;27;20420;-76
2022/10/02 12:58:00;;;;;;;10.70;2.40;;;;;;;;;;5113246;27;20425;-76
2022/10/02 13:00:26;;;;;;;9.63;2.20;;;;;;;;;;5110440;27;20446;-76
2022/10/02 13:02:52;;;;;;;11.50;2.15;;;;;;;;;;5117046;27;21470;-76
2022/10/02 13:05:50;;;;;;;13.38;2.60;;;17.30;99.90;;;;;;5094181;27;20414;-76
2022/10/02 13:08:31;;;;;;;11.38;2.70;;;;;;;;;;5096015;27;20900;-76
2022/10/02 13:11:12;;;;;;;11.68;2.47;;;17.30;99.90;;;;;;5116944;27;20409;-76
2022/10/02 13:13:50;;;;;;;10.82;2.90;;;;;;;;;;5118628;27;20417;-76
2022/10/02 13:16:24;;;;;;;10.77;2.42;;;;;;;;;;5093231;27;20530;-75
2022/10/02 13:19:09;;;;;;;9.80;2.20;;;;;;;;;;5101404;27;20413;-76
2022/10/02 13:21:41;;;;;;;12.27;2.83;;;;;;;;;;5102203;27;20772;-76
2022/10/02 13:24:19;;;;;;;8.43;2.33;;;;;;;;;;5119892;27;20401;-76
2022/10/02 13:27:05;;;;;;;11.43;2.63;;;;;;;;;;5131531;27;20420;-76
2022/10/02 13:30:13;;;;;;;12.40;2.92;;;16.80;99.90;;;;;;5104633;27;20466;-76
2022/10/02 13:32:45;;;;;;;15.45;3.03;;;;;;;;;;5103437;27;20507;-76
2022/10/02 13:35:23;;;;;;;11.25;2.58;;;17.00;99.90;;;;;;5132604;27;20877;-76
2022/10/02 13:37:55;;;;;;;11.63;2.25;;;;;;;;;;5130559;27;20830;-76
2022/10/02 13:40:59;;;;;;;12.67;2.77;;;16.90;99.90;;;;;;5126150;27;20446;-76
2022/10/02 13:43:42;;;;;;;14.57;3.08;;;17.00;99.90;;;;;;5108183;27;20453;-76
2022/10/02 13:46:08;;;;;;;12.68;2.65;;;;;;;;;;5107477;27;20859;-76
2022/10/02 13:48:53;;;;;;;10.93;2.80;;;;;;;;;;5109321;27;20445;-76
2022/10/02 13:51:32;;;;;;;9.88;2.47;;;;;;;;;;5128845;27;20420;-76
2022/10/02 13:54:22;;;;;;;10.70;2.33;;;16.90;99.90;;;;;;5111200;27;20450;-75
2022/10/02 13:57:02;;;;;;;10.88;2.90;;;16.60;99.90;;;;;;5122306;27;20483;-76
2022/10/02 13:59:42;;;;;;;13.57;2.70;;;16.70;99.90;;;;;;5117358;27;20421;-76
2022/10/02 14:02:24;;;;;;;11.43;2.78;;;;;;;;;;5129722;27;20535;-76
2022/10/02 14:05:28;;;;;;;12.65;3.10;;;;;;;;;;5130628;27;20420;-76
2022/10/02 14:08:00;;;;;;;13.85;2.70;;;;;;;;;;5034902;28;20484;-76
2022/10/02 14:10:51;;;;;;;10.40;2.50;;;16.60;99.90;;;;;;5025872;28;20423;-76
2022/10/02 14:13:38;;;;;;;12.93;2.78;;;16.50;99.90;;;;;;5097440;27;20421;-76
2022/10/02 14:16:20;;;;;;;12.25;2.58;;;;;;;;;;5125627;27;20759;-76
2022/10/02 14:18:52;;;;;;;12.60;2.90;;;;;;;;;;5109634;27;20777;-76
2022/10/02 14:21:32;;;;;;;12.90;2.50;;;;;;;;;;5121317;27;20417;-76
2022/10/02 14:24:58;;;;;;;15.13;2.87;;;16.10;99.90;;;;;;5125119;27;20781;-76
2022/10/02 14:27:30;;;;;;;13.18;2.47;;;;;;;;;;5127452;27;20450;-76
2022/10/02 14:29:59;;;;;;;12.15;3.08;;;15.80;99.90;;;;;;5125182;27;20416;-76
2022/10/02 14:32:25;;;;;;;11.43;2.50;;;;;;;;;;5113218;27;20417;-76
2022/10/02 14:34:51;;;;;;;11.43;2.85;;;;;;;;;;5124247;27;20419;-76
2022/10/02 14:37:30;;;;;;;11.90;3.45;;;;;;;;;;5097035;27;20493;-76
2022/10/02 14:39:57;;;;;;;10.57;2.90;;;;;;;;;;5125546;27;20470;-76
2022/10/02 14:42:24;;;;;;;12.40;2.78;;;;;;;;;;5120953;27;20431;-76
2022/10/02 14:45:23;;;;;;;15.40;3.27;;;16.60;99.90;;;;;;5106011;27;20465;-75
2022/10/02 14:48:13;;;;;;;9.57;2.70;;;16.50;99.90;;;;;;5118318;28;20501;-75
2022/10/02 14:50:39;;;;;;;12.88;3.05;;;;;;;;;;5121024;27;20468;-76
2022/10/02 14:53:21;;;;;;;12.27;2.50;;;;;;;;;;5108063;27;20912;-76
2022/10/02 14:55:47;;;;;;;14.13;2.70;;;;;;;;;;5121123;27;20444;-75
2022/10/02 14:58:32;;;;;;;9.87;2.63;;;;;;;;;;5119405;27;20467;-76
2022/10/02 15:00:58;;;;;;;14.53;3.20;;;;;;;;;;5107895;27;20489;-75
2022/10/02 15:03:24;;;;;;;11.73;3.00;;;;;;;;;;5130585;27;20444;-76